sensor_id;sensor_type;location;lat;lon;timestamp;pressure;altitude;pressure_sealevel;temperature;humidity
60852;BME280;48553;50.766;2.900;2023-05-20T00:00:14;101672.50;;;14.43;64.83
60852;BME280;48553;50.766;2.900;2023-05-20T00:03:18;101673.97;;;14.40;65.13
60852;BME280;48553;50.766;2.900;2023-05-20T00:06:22;101671.22;;;14.40;65.33
60852;BME280;48553;50.766;2.900;2023-05-20T00:09:22;101671.63;;;14.30;65.46
60852;BME280;48553;50.766;2.900;2023-05-20T00:12:23;101674.84;;;14.32;65.80
60852;BME280;48553;50.766;2.900;2023-05-20T00:15:23;101661.41;;;14.30;65.75
60852;BME280;48553;50.766;2.900;2023-05-20T00:18:23;101657.38;;;14.28;65.62
60852;BME280;48553;50.766;2.900;2023-05-20T00:21:24;101663.56;;;14.25;65.57
60852;BME280;48553;50.766;2.900;2023-05-20T00:24:25;101665.06;;;14.22;65.91
60852;BME280;48553;50.766;2.900;2023-05-20T00:27:26;101664.25;;;14.22;66.22
60852;BME280;48553;50.766;2.900;2023-05-20T00:30:26;101657.44;;;14.19;66.09
60852;BME280;48553;50.766;2.900;2023-05-20T00:33:27;101656.16;;;14.16;66.37
60852;BME280;48553;50.766;2.900;2023-05-20T00:36:27;101651.34;;;14.13;66.45
60852;BME280;48553;50.766;2.900;2023-05-20T00:39:28;101653.16;;;14.09;66.63
60852;BME280;48553;50.766;2.900;2023-05-20T00:42:29;101647.66;;;14.09;66.83
60852;BME280;48553;50.766;2.900;2023-05-20T00:45:30;101640.06;;;14.06;66.64
60852;BME280;48553;50.766;2.900;2023-05-20T00:48:42;101650.28;;;14.06;66.94
60852;BME280;48553;50.766;2.900;2023-05-20T00:51:43;101645.91;;;14.05;67.13
60852;BME280;48553;50.766;2.900;2023-05-20T00:54:44;101647.84;;;14.04;66.87
60852;BME280;48553;50.766;2.900;2023-05-20T00:57:45;101646.59;;;14.02;66.99
60852;BME280;48553;50.766;2.900;2023-05-20T01:00:45;101638.63;;;14.00;67.07
60852;BME280;48553;50.766;2.900;2023-05-20T01:03:46;101637.69;;;13.96;67.22
60852;BME280;48553;50.766;2.900;2023-05-20T01:06:47;101642.25;;;13.92;67.33
60852;BME280;48553;50.766;2.900;2023-05-20T01:09:48;101628.03;;;13.90;67.57
60852;BME280;48553;50.766;2.900;2023-05-20T01:12:53;101626.41;;;13.89;67.47
60852;BME280;48553;50.766;2.900;2023-05-20T01:15:54;101624.81;;;13.88;67.41
60852;BME280;48553;50.766;2.900;2023-05-20T01:18:56;101623.19;;;13.87;67.61
60852;BME280;48553;50.766;2.900;2023-05-20T01:21:59;101617.88;;;13.82;67.68
60852;BME280;48553;50.766;2.900;2023-05-20T01:25:00;101614.66;;;13.79;67.36
60852;BME280;48553;50.766;2.900;2023-05-20T01:28:02;101626.00;;;13.78;68.00
60852;BME280;48553;50.766;2.900;2023-05-20T01:31:04;101615.34;;;13.76;68.09
60852;BME280;48553;50.766;2.900;2023-05-20T01:34:06;101614.50;;;13.76;68.11
60852;BME280;48553;50.766;2.900;2023-05-20T01:37:07;101613.59;;;13.72;68.09
60852;BME280;48553;50.766;2.900;2023-05-20T01:40:09;101610.38;;;13.70;68.46
60852;BME280;48553;50.766;2.900;2023-05-20T01:43:12;101610.38;;;13.70;68.26
60852;BME280;48553;50.766;2.900;2023-05-20T01:46:14;101604.72;;;13.66;68.37
60852;BME280;48553;50.766;2.900;2023-05-20T01:49:14;101605.88;;;13.65;68.62
60852;BME280;48553;50.766;2.900;2023-05-20T01:52:15;101607.00;;;13.64;68.54
60852;BME280;48553;50.766;2.900;2023-05-20T01:55:15;101602.16;;;13.61;68.65
60852;BME280;48553;50.766;2.900;2023-05-20T01:58:16;101601.47;;;13.64;68.48
60852;BME280;48553;50.766;2.900;2023-05-20T02:01:16;101598.59;;;13.61;68.52
60852;BME280;48553;50.766;2.900;2023-05-20T02:04:16;101596.03;;;13.55;68.54
60852;BME280;48553;50.766;2.900;2023-05-20T02:07:18;101605.78;;;13.53;68.72
60852;BME280;48553;50.766;2.900;2023-05-20T02:10:19;101595.22;;;13.55;68.57
60852;BME280;48553;50.766;2.900;2023-05-20T02:13:19;101595.75;;;13.48;68.70
60852;BME280;48553;50.766;2.900;2023-05-20T02:16:19;101592.53;;;13.46;68.75
60852;BME280;48553;50.766;2.900;2023-05-20T02:19:20;101598.03;;;13.46;68.69
60852;BME280;48553;50.766;2.900;2023-05-20T02:22:22;101601.47;;;13.43;68.95
60852;BME280;48553;50.766;2.900;2023-05-20T02:25:22;101595.97;;;13.43;69.01
60852;BME280;48553;50.766;2.900;2023-05-20T02:28:23;101591.47;;;13.39;69.02
60852;BME280;48553;50.766;2.900;2023-05-20T02:31:23;101587.44;;;13.36;69.03
60852;BME280;48553;50.766;2.900;2023-05-20T02:34:24;101588.72;;;13.39;68.81
60852;BME280;48553;50.766;2.900;2023-05-20T02:37:29;101586.63;;;13.35;68.68
60852;BME280;48553;50.766;2.900;2023-05-20T02:40:29;101579.03;;;13.32;68.67
60852;BME280;48553;50.766;2.900;2023-05-20T02:43:31;101580.19;;;13.31;68.91
60852;BME280;48553;50.766;2.900;2023-05-20T02:46:31;101571.44;;;13.29;68.65
60852;BME280;48553;50.766;2.900;2023-05-20T02:49:32;101571.75;;;13.28;68.67
60852;BME280;48553;50.766;2.900;2023-05-20T02:52:32;101575.16;;;13.25;68.73
60852;BME280;48553;50.766;2.900;2023-05-20T02:55:34;101572.72;;;13.23;68.68
60852;BME280;48553;50.766;2.900;2023-05-20T02:58:35;101567.59;;;13.22;68.65
60852;BME280;48553;50.766;2.900;2023-05-20T03:01:36;101578.91;;;13.20;68.93
60852;BME280;48553;50.766;2.900;2023-05-20T03:04:36;101559.19;;;13.18;68.35
60852;BME280;48553;50.766;2.900;2023-05-20T03:07:37;101570.50;;;13.16;68.69
60852;BME280;48553;50.766;2.900;2023-05-20T03:10:38;101571.19;;;13.13;68.52
60852;BME280;48553;50.766;2.900;2023-05-20T03:13:38;101571.19;;;13.13;68.43
60852;BME280;48553;50.766;2.900;2023-05-20T03:16:39;101573.78;;;13.10;68.49
60852;BME280;48553;50.766;2.900;2023-05-20T03:19:39;101582.72;;;13.07;68.69
60852;BME280;48553;50.766;2.900;2023-05-20T03:22:40;101571.72;;;13.07;68.57
60852;BME280;48553;50.766;2.900;2023-05-20T03:25:40;101578.69;;;13.04;68.60
60852;BME280;48553;50.766;2.900;2023-05-20T03:28:41;101571.91;;;13.02;68.55
60852;BME280;48553;50.766;2.900;2023-05-20T03:31:41;101566.41;;;13.02;68.46
60852;BME280;48553;50.766;2.900;2023-05-20T03:34:41;101567.88;;;12.99;68.60
60852;BME280;48553;50.766;2.900;2023-05-20T03:37:42;101572.91;;;12.97;68.53
60852;BME280;48553;50.766;2.900;2023-05-20T03:40:42;101560.13;;;12.92;68.72
60852;BME280;48553;50.766;2.900;2023-05-20T03:43:43;101570.00;;;12.93;68.52
60852;BME280;48553;50.766;2.900;2023-05-20T03:46:43;101571.16;;;12.92;68.52
60852;BME280;48553;50.766;2.900;2023-05-20T03:49:43;101566.75;;;12.91;68.59
60852;BME280;48553;50.766;2.900;2023-05-20T03:52:44;101567.13;;;12.90;68.66
60852;BME280;48553;50.766;2.900;2023-05-20T03:55:44;101563.06;;;12.87;68.84
60852;BME280;48553;50.766;2.900;2023-05-20T03:58:45;101566.16;;;12.86;68.90
60852;BME280;48553;50.766;2.900;2023-05-20T04:01:47;101559.81;;;12.85;68.87
60852;BME280;48553;50.766;2.900;2023-05-20T04:04:47;101560.19;;;12.84;68.89
60852;BME280;48553;50.766;2.900;2023-05-20T04:07:51;101567.63;;;12.83;68.98
60852;BME280;48553;50.766;2.900;2023-05-20T04:10:55;101565.53;;;12.80;69.04
60852;BME280;48553;50.766;2.900;2023-05-20T04:13:56;101562.78;;;12.80;69.05
60852;BME280;48553;50.766;2.900;2023-05-20T04:16:57;101558.06;;;12.81;68.94
60852;BME280;48553;50.766;2.900;2023-05-20T04:19:58;101563.44;;;12.77;69.28
60852;BME280;48553;50.766;2.900;2023-05-20T04:22:58;101568.94;;;12.77;69.34
60852;BME280;48553;50.766;2.900;2023-05-20T04:25:59;101569.63;;;12.74;69.49
60852;BME280;48553;50.766;2.900;2023-05-20T04:29:01;101557.47;;;12.75;69.44
60852;BME280;48553;50.766;2.900;2023-05-20T04:32:03;101551.47;;;12.73;69.57
60852;BME280;48553;50.766;2.900;2023-05-20T04:35:04;101553.91;;;12.74;69.49
60852;BME280;48553;50.766;2.900;2023-05-20T04:38:10;101573.66;;;12.77;69.81
60852;BME280;48553;50.766;2.900;2023-05-20T04:41:11;101570.25;;;12.71;69.93
60852;BME280;48553;50.766;2.900;2023-05-20T04:44:11;101571.53;;;12.73;69.91
60852;BME280;48553;50.766;2.900;2023-05-20T04:47:12;101568.31;;;12.71;69.89
60852;BME280;48553;50.766;2.900;2023-05-20T04:50:13;101570.41;;;12.74;69.77
60852;BME280;48553;50.766;2.900;2023-05-20T04:53:17;101569.63;;;12.74;70.10
60852;BME280;48553;50.766;2.900;2023-05-20T04:56:18;101577.19;;;12.77;70.10
60852;BME280;48553;50.766;2.900;2023-05-20T04:59:18;101567.66;;;12.74;70.30
60852;BME280;48553;50.766;2.900;2023-05-20T05:02:19;101563.28;;;12.73;70.44
60852;BME280;48553;50.766;2.900;2023-05-20T05:05:19;101565.72;;;12.75;70.49
60852;BME280;48553;50.766;2.900;2023-05-20T05:08:19;101561.00;;;12.75;70.69
60852;BME280;48553;50.766;2.900;2023-05-20T05:11:20;101565.41;;;12.77;70.77
60852;BME280;48553;50.766;2.900;2023-05-20T05:14:20;101553.41;;;12.81;70.52
60852;BME280;48553;50.766;2.900;2023-05-20T05:17:21;101549.50;;;12.82;70.70
60852;BME280;48553;50.766;2.900;2023-05-20T05:20:21;101552.41;;;12.86;70.47
60852;BME280;48553;50.766;2.900;2023-05-20T05:23:22;101548.81;;;12.85;70.86
60852;BME280;48553;50.766;2.900;2023-05-20T05:26:22;101547.69;;;12.86;71.02
60852;BME280;48553;50.766;2.900;2023-05-20T05:29:23;101559.19;;;12.88;71.00
60852;BME280;48553;50.766;2.900;2023-05-20T05:32:23;101562.06;;;12.92;71.01
60852;BME280;48553;50.766;2.900;2023-05-20T05:35:24;101559.00;;;12.93;70.95
60852;BME280;48553;50.766;2.900;2023-05-20T05:38:24;101553.63;;;12.97;71.13
60852;BME280;48553;50.766;2.900;2023-05-20T05:41:25;101560.41;;;13.00;71.11
60852;BME280;48553;50.766;2.900;2023-05-20T05:44:25;101565.25;;;13.03;71.14
60852;BME280;48553;50.766;2.900;2023-05-20T05:47:26;101554.88;;;13.08;70.88
60852;BME280;48553;50.766;2.900;2023-05-20T05:50:31;101561.19;;;13.09;71.11
60852;BME280;48553;50.766;2.900;2023-05-20T05:53:31;101561.44;;;13.16;71.04
60852;BME280;48553;50.766;2.900;2023-05-20T05:56:32;101555.94;;;13.16;71.15
60852;BME280;48553;50.766;2.900;2023-05-20T05:59:32;101555.41;;;13.23;70.39
60852;BME280;48553;50.766;2.900;2023-05-20T06:02:33;101552.50;;;13.28;70.47
60852;BME280;48553;50.766;2.900;2023-05-20T06:05:35;101551.63;;;13.36;70.55
60852;BME280;48553;50.766;2.900;2023-05-20T06:08:35;101554.19;;;13.41;70.08
60852;BME280;48553;50.766;2.900;2023-05-20T06:11:36;101555.13;;;13.45;70.21
60852;BME280;48553;50.766;2.900;2023-05-20T06:14:36;101545.88;;;13.50;70.04
60852;BME280;48553;50.766;2.900;2023-05-20T06:17:37;101549.22;;;13.55;70.01
60852;BME280;48553;50.766;2.900;2023-05-20T06:20:37;101550.94;;;13.60;70.12
60852;BME280;48553;50.766;2.900;2023-05-20T06:23:37;101543.63;;;13.64;70.14
60852;BME280;48553;50.766;2.900;2023-05-20T06:26:38;101552.84;;;13.68;70.26
60852;BME280;48553;50.766;2.900;2023-05-20T06:29:38;101547.94;;;13.74;69.95
60852;BME280;48553;50.766;2.900;2023-05-20T06:32:39;101545.31;;;13.77;69.83
60852;BME280;48553;50.766;2.900;2023-05-20T06:35:39;101544.75;;;13.84;69.96
60852;BME280;48553;50.766;2.900;2023-05-20T06:38:40;101536.63;;;13.88;70.35
60852;BME280;48553;50.766;2.900;2023-05-20T06:41:40;101530.22;;;13.96;70.38
60852;BME280;48553;50.766;2.900;2023-05-20T06:44:41;101531.28;;;14.04;71.00
60852;BME280;48553;50.766;2.900;2023-05-20T06:47:41;101535.41;;;14.10;70.79
60852;BME280;48553;50.766;2.900;2023-05-20T06:50:43;101532.56;;;14.18;70.71
60852;BME280;48553;50.766;2.900;2023-05-20T06:53:44;101526.84;;;14.24;70.74
60852;BME280;48553;50.766;2.900;2023-05-20T06:56:44;101535.38;;;14.31;70.40
60852;BME280;48553;50.766;2.900;2023-05-20T06:59:44;101530.91;;;14.38;70.14
60852;BME280;48553;50.766;2.900;2023-05-20T07:02:45;101530.00;;;14.47;70.33
60852;BME280;48553;50.766;2.900;2023-05-20T07:05:46;101517.28;;;14.54;70.14
60852;BME280;48553;50.766;2.900;2023-05-20T07:08:47;101513.47;;;14.71;69.87
60852;BME280;48553;50.766;2.900;2023-05-20T07:11:47;101512.44;;;14.76;70.10
60852;BME280;48553;50.766;2.900;2023-05-20T07:14:47;101508.75;;;14.84;69.79
60852;BME280;48553;50.766;2.900;2023-05-20T07:17:48;101512.66;;;14.95;69.54
60852;BME280;48553;50.766;2.900;2023-05-20T07:20:48;101517.00;;;15.09;69.62
60852;BME280;48553;50.766;2.900;2023-05-20T07:23:49;101516.66;;;15.22;69.41
60852;BME280;48553;50.766;2.900;2023-05-20T07:26:49;101521.25;;;15.31;68.77
60852;BME280;48553;50.766;2.900;2023-05-20T07:29:50;101519.72;;;15.33;68.58
60852;BME280;48553;50.766;2.900;2023-05-20T07:32:50;101516.72;;;15.38;68.60
60852;BME280;48553;50.766;2.900;2023-05-20T07:35:51;101524.06;;;15.47;68.43
60852;BME280;48553;50.766;2.900;2023-05-20T07:38:53;101517.78;;;15.62;68.22
60852;BME280;48553;50.766;2.900;2023-05-20T07:41:54;101525.28;;;15.74;68.13
60852;BME280;48553;50.766;2.900;2023-05-20T07:44:54;101509.69;;;15.81;67.75
60852;BME280;48553;50.766;2.900;2023-05-20T07:47:55;101507.38;;;15.83;67.99
60852;BME280;48553;50.766;2.900;2023-05-20T07:50:55;101497.03;;;15.96;67.63
60852;BME280;48553;50.766;2.900;2023-05-20T07:53:58;101503.47;;;16.16;67.19
60852;BME280;48553;50.766;2.900;2023-05-20T07:56:59;101507.50;;;16.35;67.10
60852;BME280;48553;50.766;2.900;2023-05-20T08:00:00;101507.78;;;16.45;66.96
60852;BME280;48553;50.766;2.900;2023-05-20T08:03:00;101505.75;;;16.58;66.76
60852;BME280;48553;50.766;2.900;2023-05-20T08:06:01;101500.72;;;16.80;66.27
60852;BME280;48553;50.766;2.900;2023-05-20T08:09:02;101497.03;;;16.91;66.13
60852;BME280;48553;50.766;2.900;2023-05-20T08:12:03;101492.84;;;16.98;66.08
60852;BME280;48553;50.766;2.900;2023-05-20T08:15:04;101490.38;;;17.12;65.55
60852;BME280;48553;50.766;2.900;2023-05-20T08:18:05;101485.16;;;17.26;65.25
60852;BME280;48553;50.766;2.900;2023-05-20T08:21:06;101473.94;;;17.19;64.16
60852;BME280;48553;50.766;2.900;2023-05-20T08:24:09;101490.16;;;17.21;63.63
60852;BME280;48553;50.766;2.900;2023-05-20T08:27:09;101496.22;;;17.46;63.78
60852;BME280;48553;50.766;2.900;2023-05-20T08:30:10;101487.66;;;17.51;62.97
60852;BME280;48553;50.766;2.900;2023-05-20T08:33:10;101484.78;;;17.67;62.98
60852;BME280;48553;50.766;2.900;2023-05-20T08:36:12;101481.78;;;17.75;62.28
60852;BME280;48553;50.766;2.900;2023-05-20T08:39:13;101481.06;;;17.79;61.53
60852;BME280;48553;50.766;2.900;2023-05-20T08:42:13;101487.41;;;17.99;61.47
60852;BME280;48553;50.766;2.900;2023-05-20T08:45:16;101483.69;;;18.14;60.91
60852;BME280;48553;50.766;2.900;2023-05-20T08:48:17;101485.03;;;18.01;61.83
60852;BME280;48553;50.766;2.900;2023-05-20T08:51:20;101476.47;;;18.32;61.25
60852;BME280;48553;50.766;2.900;2023-05-20T08:54:22;101467.47;;;18.39;59.71
60852;BME280;48553;50.766;2.900;2023-05-20T08:57:26;101467.47;;;18.39;59.78
60852;BME280;48553;50.766;2.900;2023-05-20T09:00:27;101470.59;;;18.61;60.23
60852;BME280;48553;50.766;2.900;2023-05-20T09:03:28;101467.31;;;18.55;59.55
60852;BME280;48553;50.766;2.900;2023-05-20T09:06:28;101472.22;;;18.39;61.20
60852;BME280;48553;50.766;2.900;2023-05-20T09:09:29;101466.97;;;18.33;60.50
60852;BME280;48553;50.766;2.900;2023-05-20T09:12:30;101459.44;;;18.34;60.61
60852;BME280;48553;50.766;2.900;2023-05-20T09:16:08;101454.16;;;18.25;62.18
60852;BME280;48553;50.766;2.900;2023-05-20T09:19:09;101458.34;;;18.39;62.26
60852;BME280;48553;50.766;2.900;2023-05-20T09:22:10;101458.44;;;18.46;62.51
60852;BME280;48553;50.766;2.900;2023-05-20T09:25:10;101443.63;;;18.61;62.34
60852;BME280;48553;50.766;2.900;2023-05-20T09:28:12;101444.50;;;18.69;62.19
60852;BME280;48553;50.766;2.900;2023-05-20T09:31:13;101456.13;;;18.74;62.27
60852;BME280;48553;50.766;2.900;2023-05-20T09:34:14;101445.56;;;18.84;61.61
60852;BME280;48553;50.766;2.900;2023-05-20T09:37:17;101439.75;;;18.96;61.58
60852;BME280;48553;50.766;2.900;2023-05-20T09:40:25;101445.00;;;19.01;61.25
60852;BME280;48553;50.766;2.900;2023-05-20T09:43:27;101436.75;;;19.08;61.30
60852;BME280;48553;50.766;2.900;2023-05-20T09:46:28;101434.50;;;19.17;60.87
60852;BME280;48553;50.766;2.900;2023-05-20T09:49:31;101423.88;;;19.27;60.25
60852;BME280;48553;50.766;2.900;2023-05-20T09:52:34;101425.94;;;19.33;60.96
60852;BME280;48553;50.766;2.900;2023-05-20T09:55:37;101436.78;;;19.42;60.78
60852;BME280;48553;50.766;2.900;2023-05-20T09:58:39;101423.81;;;19.57;60.07
60852;BME280;48553;50.766;2.900;2023-05-20T10:01:41;101421.50;;;19.63;59.73
60852;BME280;48553;50.766;2.900;2023-05-20T10:04:44;101409.25;;;19.67;59.12
60852;BME280;48553;50.766;2.900;2023-05-20T10:08:04;101416.91;;;19.77;58.41
60852;BME280;48553;50.766;2.900;2023-05-20T10:14:55;101411.88;;;19.94;57.32
60852;BME280;48553;50.766;2.900;2023-05-20T10:21:17;101404.41;;;20.01;57.21
60852;BME280;48553;50.766;2.900;2023-05-20T10:24:28;101396.91;;;20.09;56.63
60852;BME280;48553;50.766;2.900;2023-05-20T10:27:29;101397.31;;;20.11;56.45
60852;BME280;48553;50.766;2.900;2023-05-20T10:30:30;101394.22;;;20.20;56.12
60852;BME280;48553;50.766;2.900;2023-05-20T10:33:41;101404.19;;;20.24;56.12
60852;BME280;48553;50.766;2.900;2023-05-20T10:36:45;101394.22;;;20.20;55.98
60852;BME280;48553;50.766;2.900;2023-05-20T10:39:47;101388.66;;;20.20;55.22
60852;BME280;48553;50.766;2.900;2023-05-20T10:42:48;101383.88;;;20.20;55.00
60852;BME280;48553;50.766;2.900;2023-05-20T10:45:50;101381.97;;;20.28;54.95
60852;BME280;48553;50.766;2.900;2023-05-20T10:48:51;101374.44;;;20.36;54.97
60852;BME280;48553;50.766;2.900;2023-05-20T10:51:51;101370.88;;;20.39;54.50
60852;BME280;48553;50.766;2.900;2023-05-20T10:54:54;101369.75;;;20.47;54.50
60852;BME280;48553;50.766;2.900;2023-05-20T10:57:55;101374.97;;;20.56;54.13
60852;BME280;48553;50.766;2.900;2023-05-20T11:00:57;101375.84;;;20.67;54.40
60852;BME280;48553;50.766;2.900;2023-05-20T11:03:57;101369.13;;;20.75;54.34
60852;BME280;48553;50.766;2.900;2023-05-20T11:06:59;101362.00;;;20.81;54.31
60852;BME280;48553;50.766;2.900;2023-05-20T11:10:00;101363.63;;;20.90;53.72
60852;BME280;48553;50.766;2.900;2023-05-20T11:13:01;101365.25;;;21.01;53.40
60852;BME280;48553;50.766;2.900;2023-05-20T11:16:02;101348.97;;;21.11;53.73
60852;BME280;48553;50.766;2.900;2023-05-20T11:19:06;101350.97;;;21.21;53.50
60852;BME280;48553;50.766;2.900;2023-05-20T11:22:07;101358.97;;;21.30;54.00
60852;BME280;48553;50.766;2.900;2023-05-20T11:25:08;101351.00;;;21.28;53.51
60852;BME280;48553;50.766;2.900;2023-05-20T11:28:14;101351.41;;;21.34;53.29
60852;BME280;48553;50.766;2.900;2023-05-20T11:31:17;101353.44;;;21.40;52.65
60852;BME280;48553;50.766;2.900;2023-05-20T11:34:21;101339.91;;;21.46;52.98
60852;BME280;48553;50.766;2.900;2023-05-20T11:37:22;101351.84;;;21.50;53.18
60852;BME280;48553;50.766;2.900;2023-05-20T11:40:24;101351.50;;;21.62;52.24
60852;BME280;48553;50.766;2.900;2023-05-20T11:43:25;101348.69;;;21.69;52.37
60852;BME280;48553;50.766;2.900;2023-05-20T11:46:26;101335.94;;;21.72;52.13
60852;BME280;48553;50.766;2.900;2023-05-20T11:49:27;101329.56;;;21.79;51.95
60852;BME280;48553;50.766;2.900;2023-05-20T11:52:28;101326.38;;;21.91;52.91
60852;BME280;48553;50.766;2.900;2023-05-20T11:55:30;101330.34;;;21.97;53.05
60852;BME280;48553;50.766;2.900;2023-05-20T11:58:32;101321.56;;;21.95;52.53
60852;BME280;48553;50.766;2.900;2023-05-20T12:01:34;101325.97;;;21.93;52.79
60852;BME280;48553;50.766;2.900;2023-05-20T12:04:40;101312.41;;;22.05;52.85
60852;BME280;48553;50.766;2.900;2023-05-20T12:07:41;101311.19;;;22.06;53.10
60852;BME280;48553;50.766;2.900;2023-05-20T12:10:41;101305.63;;;22.06;52.33
60852;BME280;48553;50.766;2.900;2023-05-20T12:13:44;101297.66;;;22.12;51.81
60852;BME280;48553;50.766;2.900;2023-05-20T12:16:44;101301.63;;;22.11;51.64
60852;BME280;48553;50.766;2.900;2023-05-20T12:19:45;101299.63;;;22.19;52.50
60852;BME280;48553;50.766;2.900;2023-05-20T12:22:45;101295.22;;;22.25;52.05
60852;BME280;48553;50.766;2.900;2023-05-20T12:25:46;101303.19;;;22.30;52.48
60852;BME280;48553;50.766;2.900;2023-05-20T12:28:49;101298.00;;;22.36;51.73
60852;BME280;48553;50.766;2.900;2023-05-20T12:31:49;101303.94;;;22.41;51.49
60852;BME280;48553;50.766;2.900;2023-05-20T12:34:50;101292.78;;;22.48;51.24
60852;BME280;48553;50.766;2.900;2023-05-20T12:37:50;101296.75;;;22.51;51.83
60852;BME280;48553;50.766;2.900;2023-05-20T12:40:51;101290.75;;;22.56;51.74
60852;BME280;48553;50.766;2.900;2023-05-20T12:43:51;101299.91;;;22.60;51.10
60852;BME280;48553;50.766;2.900;2023-05-20T12:46:53;101289.88;;;22.66;52.00
60852;BME280;48553;50.766;2.900;2023-05-20T12:49:54;101295.88;;;22.68;50.87
60852;BME280;48553;50.766;2.900;2023-05-20T12:52:55;101298.66;;;22.72;51.31
60852;BME280;48553;50.766;2.900;2023-05-20T12:55:55;101282.28;;;22.70;50.53
60852;BME280;48553;50.766;2.900;2023-05-20T12:58:56;101299.50;;;22.69;50.86
60852;BME280;48553;50.766;2.900;2023-05-20T13:01:57;101287.88;;;22.70;50.90
60852;BME280;48553;50.766;2.900;2023-05-20T13:04:57;101300.66;;;22.68;49.97
60852;BME280;48553;50.766;2.900;2023-05-20T13:07:58;101287.09;;;22.70;51.01
60852;BME280;48553;50.766;2.900;2023-05-20T13:10:58;101284.69;;;22.72;50.34
60852;BME280;48553;50.766;2.900;2023-05-20T13:13:59;101270.72;;;22.76;48.96
60852;BME280;48553;50.766;2.900;2023-05-20T13:16:59;101264.69;;;22.77;50.16
60852;BME280;48553;50.766;2.900;2023-05-20T13:20:00;101253.56;;;22.73;50.31
60852;BME280;48553;50.766;2.900;2023-05-20T13:23:00;101269.88;;;22.79;50.65
60852;BME280;48553;50.766;2.900;2023-05-20T13:26:01;101259.09;;;22.81;50.04
60852;BME280;48553;50.766;2.900;2023-05-20T13:29:02;101257.47;;;22.83;49.53
60852;BME280;48553;50.766;2.900;2023-05-20T13:32:03;101256.66;;;22.86;48.90
60852;BME280;48553;50.766;2.900;2023-05-20T13:35:04;101266.66;;;22.87;49.72
60852;BME280;48553;50.766;2.900;2023-05-20T13:38:05;101251.84;;;22.90;49.55
60852;BME280;48553;50.766;2.900;2023-05-20T13:41:06;101263.41;;;22.92;48.64
60852;BME280;48553;50.766;2.900;2023-05-20T13:44:06;101253.41;;;22.95;48.95
60852;BME280;48553;50.766;2.900;2023-05-20T13:47:06;101251.00;;;22.93;48.98
60852;BME280;48553;50.766;2.900;2023-05-20T13:50:07;101253.44;;;22.91;49.42
60852;BME280;48553;50.766;2.900;2023-05-20T13:53:08;101246.25;;;22.94;49.90
60852;BME280;48553;50.766;2.900;2023-05-20T13:56:13;101238.66;;;22.94;49.12
60852;BME280;48553;50.766;2.900;2023-05-20T13:59:13;101235.84;;;22.94;49.12
60852;BME280;48553;50.766;2.900;2023-05-20T14:02:13;101235.44;;;22.96;48.33
60852;BME280;48553;50.766;2.900;2023-05-20T14:05:14;101237.03;;;22.97;48.88
60852;BME280;48553;50.766;2.900;2023-05-20T14:08:14;101229.03;;;22.96;49.22
60852;BME280;48553;50.766;2.900;2023-05-20T14:11:15;101218.28;;;22.94;49.41
60852;BME280;48553;50.766;2.900;2023-05-20T14:14:15;101210.69;;;22.94;48.70
60852;BME280;48553;50.766;2.900;2023-05-20T14:17:16;101212.69;;;22.94;47.75
60852;BME280;48553;50.766;2.900;2023-05-20T14:20:17;101211.88;;;22.93;48.23
60852;BME280;48553;50.766;2.900;2023-05-20T14:23:17;101208.69;;;22.95;49.62
60852;BME280;48553;50.766;2.900;2023-05-20T14:26:18;101206.28;;;22.97;49.13
60852;BME280;48553;50.766;2.900;2023-05-20T14:29:18;101208.69;;;22.95;49.66
60852;BME280;48553;50.766;2.900;2023-05-20T14:32:19;101201.91;;;22.92;48.23
60852;BME280;48553;50.766;2.900;2023-05-20T14:35:19;101197.13;;;22.93;49.61
60852;BME280;48553;50.766;2.900;2023-05-20T14:38:20;101201.13;;;22.88;48.64
60852;BME280;48553;50.766;2.900;2023-05-20T14:41:20;101196.38;;;22.85;49.09
60852;BME280;48553;50.766;2.900;2023-05-20T14:44:21;101192.38;;;22.86;49.29
60852;BME280;48553;50.766;2.900;2023-05-20T14:47:21;101193.59;;;22.85;49.50
60852;BME280;48553;50.766;2.900;2023-05-20T14:50:22;101184.03;;;22.83;49.60
60852;BME280;48553;50.766;2.900;2023-05-20T14:53:22;101187.63;;;22.80;50.12
60852;BME280;48553;50.766;2.900;2023-05-20T14:56:23;101194.44;;;22.75;50.42
60852;BME280;48553;50.766;2.900;2023-05-20T14:59:23;101193.25;;;22.76;50.54
60852;BME280;48553;50.766;2.900;2023-05-20T15:02:24;101193.66;;;22.75;50.75
60852;BME280;48553;50.766;2.900;2023-05-20T15:05:24;101179.69;;;22.75;50.93
60852;BME280;48553;50.766;2.900;2023-05-20T15:08:25;101182.06;;;22.72;51.31
60852;BME280;48553;50.766;2.900;2023-05-20T15:11:25;101182.88;;;22.73;50.48
60852;BME280;48553;50.766;2.900;2023-05-20T15:14:26;101193.25;;;22.72;51.11
60852;BME280;48553;50.766;2.900;2023-05-20T15:17:26;101191.69;;;22.71;51.11
60852;BME280;48553;50.766;2.900;2023-05-20T15:20:26;101185.66;;;22.73;51.23
60852;BME280;48553;50.766;2.900;2023-05-20T15:23:27;101196.88;;;22.69;50.75
60852;BME280;48553;50.766;2.900;2023-05-20T15:26:29;101191.69;;;22.68;50.88
60852;BME280;48553;50.766;2.900;2023-05-20T15:29:30;101193.69;;;22.67;50.34
60852;BME280;48553;50.766;2.900;2023-05-20T15:32:30;101180.13;;;22.69;50.58
60852;BME280;48553;50.766;2.900;2023-05-20T15:35:31;101199.28;;;22.67;50.47
60852;BME280;48553;50.766;2.900;2023-05-20T15:38:31;101199.28;;;22.64;50.35
60852;BME280;48553;50.766;2.900;2023-05-20T15:41:31;101181.75;;;22.63;50.65
60852;BME280;48553;50.766;2.900;2023-05-20T15:44:32;101185.75;;;22.62;50.55
60852;BME280;48553;50.766;2.900;2023-05-20T15:47:35;101191.34;;;22.62;50.68
60852;BME280;48553;50.766;2.900;2023-05-20T15:50:35;101190.56;;;22.58;50.87
60852;BME280;48553;50.766;2.900;2023-05-20T15:53:36;101187.38;;;22.56;51.35